sensor_id;sensor_type;location;lat;lon;timestamp;pressure;altitude;pressure_sealevel;temperature;humidity
42111;BME280;27766;52.174;5.456;2023-04-30T00:01:04;102297.19;;;8.58;100.00
42111;BME280;27766;52.174;5.456;2023-04-30T00:03:32;102299.47;;;8.51;100.00
42111;BME280;27766;52.174;5.456;2023-04-30T00:05:59;102308.50;;;8.43;100.00
42111;BME280;27766;52.174;5.456;2023-04-30T00:08:26;102303.84;;;8.36;100.00
42111;BME280;27766;52.174;5.456;2023-04-30T00:10:54;102313.25;;;8.35;100.00
42111;BME280;27766;52.174;5.456;2023-04-30T00:13:22;102302.88;;;8.34;100.00
42111;BME280;27766;52.174;5.456;2023-04-30T00:15:49;102311.66;;;8.37;100.00
42111;BME280;27766;52.174;5.456;2023-04-30T00:18:17;102312.56;;;8.38;100.00
42111;BME280;27766;52.174;5.456;2023-04-30T00:20:44;102306.34;;;8.34;100.00
42111;BME280;27766;52.174;5.456;2023-04-30T00:23:11;102306.97;;;8.30;100.00
42111;BME280;27766;52.174;5.456;2023-04-30T00:25:38;102305.44;;;8.34;100.00
42111;BME280;27766;52.174;5.456;2023-04-30T00:28:05;102297.88;;;8.37;100.00
42111;BME280;27766;52.174;5.456;2023-04-30T00:30:32;102299.25;;;8.30;100.00
42111;BME280;27766;52.174;5.456;2023-04-30T00:32:59;102298.06;;;8.23;100.00
42111;BME280;27766;52.174;5.456;2023-04-30T00:35:27;102297.84;;;8.19;100.00
42111;BME280;27766;52.174;5.456;2023-04-30T00:37:54;102305.56;;;8.19;100.00
42111;BME280;27766;52.174;5.456;2023-04-30T00:40:21;102311.34;;;8.15;100.00
42111;BME280;27766;52.174;5.456;2023-04-30T00:42:48;102311.91;;;8.09;100.00
42111;BME280;27766;52.174;5.456;2023-04-30T00:45:18;102318.06;;;8.11;100.00
42111;BME280;27766;52.174;5.456;2023-04-30T00:47:48;102317.06;;;8.09;100.00
42111;BME280;27766;52.174;5.456;2023-04-30T00:50:16;102310.63;;;8.01;100.00
42111;BME280;27766;52.174;5.456;2023-04-30T00:52:43;102314.19;;;8.03;100.00
42111;BME280;27766;52.174;5.456;2023-04-30T00:55:11;102322.97;;;8.06;100.00
42111;BME280;27766;52.174;5.456;2023-04-30T00:57:38;102318.63;;;8.05;100.00
42111;BME280;27766;52.174;5.456;2023-04-30T01:00:07;102324.25;;;7.98;100.00
42111;BME280;27766;52.174;5.456;2023-04-30T01:02:37;102325.53;;;7.90;100.00
42111;BME280;27766;52.174;5.456;2023-04-30T01:05:05;102321.13;;;7.87;100.00
42111;BME280;27766;52.174;5.456;2023-04-30T01:07:34;102325.47;;;7.88;100.00
42111;BME280;27766;52.174;5.456;2023-04-30T01:10:01;102330.63;;;7.88;100.00
42111;BME280;27766;52.174;5.456;2023-04-30T01:15:32;102330.47;;;7.85;100.00
42111;BME280;27766;52.174;5.456;2023-04-30T01:18:09;102330.13;;;7.79;100.00
42111;BME280;27766;52.174;5.456;2023-04-30T01:20:48;102335.41;;;7.81;100.00
42111;BME280;27766;52.174;5.456;2023-04-30T01:28:58;102329.88;;;7.74;100.00
42111;BME280;27766;52.174;5.456;2023-04-30T01:31:28;102327.53;;;7.63;100.00
42111;BME280;27766;52.174;5.456;2023-04-30T01:33:56;102336.78;;;7.59;100.00
42111;BME280;27766;52.174;5.456;2023-04-30T01:42:44;102341.06;;;7.58;100.00
42111;BME280;27766;52.174;5.456;2023-04-30T01:45:26;102337.03;;;7.64;100.00
42111;BME280;27766;52.174;5.456;2023-04-30T01:50:42;102334.16;;;7.74;100.00
42111;BME280;27766;52.174;5.456;2023-04-30T01:53:18;102331.91;;;7.80;100.00
42111;BME280;27766;52.174;5.456;2023-04-30T01:55:54;102340.19;;;7.74;100.00
42111;BME280;27766;52.174;5.456;2023-04-30T01:58:23;102348.28;;;7.81;100.00
42111;BME280;27766;52.174;5.456;2023-04-30T02:00:51;102337.78;;;7.78;100.00
42111;BME280;27766;52.174;5.456;2023-04-30T02:03:19;102342.16;;;7.79;100.00
42111;BME280;27766;52.174;5.456;2023-04-30T02:05:47;102346.41;;;7.78;100.00
42111;BME280;27766;52.174;5.456;2023-04-30T02:08:14;102335.47;;;7.82;100.00
42111;BME280;27766;52.174;5.456;2023-04-30T02:10:41;102346.66;;;7.83;100.00
42111;BME280;27766;52.174;5.456;2023-04-30T02:13:08;102340.31;;;7.76;100.00
42111;BME280;27766;52.174;5.456;2023-04-30T02:15:36;102346.41;;;7.78;100.00
42111;BME280;27766;52.174;5.456;2023-04-30T02:18:03;102344.41;;;7.72;100.00
42111;BME280;27766;52.174;5.456;2023-04-30T02:20:30;102344.94;;;7.67;100.00
42111;BME280;27766;52.174;5.456;2023-04-30T02:22:57;102344.94;;;7.67;100.00
42111;BME280;27766;52.174;5.456;2023-04-30T02:25:24;102345.44;;;7.59;100.00
42111;BME280;27766;52.174;5.456;2023-04-30T02:27:52;102341.06;;;7.58;100.00
42111;BME280;27766;52.174;5.456;2023-04-30T02:30:19;102336.97;;;7.62;100.00
42111;BME280;27766;52.174;5.456;2023-04-30T02:32:46;102336.09;;;7.62;100.00
42111;BME280;27766;52.174;5.456;2023-04-30T02:35:14;102333.78;;;7.66;100.00
42111;BME280;27766;52.174;5.456;2023-04-30T02:37:41;102336.25;;;7.65;100.00
42111;BME280;27766;52.174;5.456;2023-04-30T02:40:08;102328.84;;;7.54;100.00
42111;BME280;27766;52.174;5.456;2023-04-30T02:42:36;102327.53;;;7.46;100.00
42111;BME280;27766;52.174;5.456;2023-04-30T02:45:04;102334.34;;;7.45;100.00
42111;BME280;27766;52.174;5.456;2023-04-30T02:47:31;102336.84;;;7.44;100.00
42111;BME280;27766;52.174;5.456;2023-04-30T02:49:58;102338.47;;;7.42;100.00
42111;BME280;27766;52.174;5.456;2023-04-30T02:52:26;102335.09;;;7.43;100.00
42111;BME280;27766;52.174;5.456;2023-04-30T02:54:53;102331.38;;;7.38;100.00
42111;BME280;27766;52.174;5.456;2023-04-30T02:57:20;102339.09;;;7.38;100.00
42111;BME280;27766;52.174;5.456;2023-04-30T02:59:48;102326.03;;;7.35;100.00
42111;BME280;27766;52.174;5.456;2023-04-30T03:02:15;102327.81;;;7.36;100.00
42111;BME280;27766;52.174;5.456;2023-04-30T03:04:42;102321.78;;;7.35;100.00
42111;BME280;27766;52.174;5.456;2023-04-30T03:07:09;102323.47;;;7.35;100.00
42111;BME280;27766;52.174;5.456;2023-04-30T03:09:37;102318.97;;;7.31;100.00
42111;BME280;27766;52.174;5.456;2023-04-30T03:12:04;102317.53;;;7.21;100.00
42111;BME280;27766;52.174;5.456;2023-04-30T03:14:31;102323.06;;;7.12;100.00
42111;BME280;27766;52.174;5.456;2023-04-30T03:16:58;102323.53;;;7.05;100.00
42111;BME280;27766;52.174;5.456;2023-04-30T03:19:25;102323.72;;;7.08;100.00
42111;BME280;27766;52.174;5.456;2023-04-30T03:21:53;102325.66;;;7.12;100.00
42111;BME280;27766;52.174;5.456;2023-04-30T03:24:21;102324.78;;;7.11;100.00
42111;BME280;27766;52.174;5.456;2023-04-30T03:26:48;102327.91;;;7.06;100.00
42111;BME280;27766;52.174;5.456;2023-04-30T03:29:15;102316.19;;;6.96;100.00
42111;BME280;27766;52.174;5.456;2023-04-30T03:31:42;102321.16;;;6.93;100.00
42111;BME280;27766;52.174;5.456;2023-04-30T03:34:10;102320.91;;;6.88;100.00
42111;BME280;27766;52.174;5.456;2023-04-30T03:36:37;102324.25;;;6.87;100.00
42111;BME280;27766;52.174;5.456;2023-04-30T03:39:04;102325.50;;;6.94;100.00
42111;BME280;27766;52.174;5.456;2023-04-30T03:41:32;102323.19;;;6.99;100.00
42111;BME280;27766;52.174;5.456;2023-04-30T03:43:59;102320.44;;;6.95;100.00
42111;BME280;27766;52.174;5.456;2023-04-30T03:46:26;102317.06;;;6.96;100.00
42111;BME280;27766;52.174;5.456;2023-04-30T03:48:54;102316.34;;;6.99;100.00
42111;BME280;27766;52.174;5.456;2023-04-30T03:51:21;102314.75;;;6.86;100.00
42111;BME280;27766;52.174;5.456;2023-04-30T03:53:48;102308.66;;;6.84;100.00
42111;BME280;27766;52.174;5.456;2023-04-30T03:56:15;102312.13;;;6.85;100.00
42111;BME280;27766;52.174;5.456;2023-04-30T03:58:42;102315.75;;;6.88;100.00
42111;BME280;27766;52.174;5.456;2023-04-30T04:01:09;102317.59;;;6.91;100.00
42111;BME280;27766;52.174;5.456;2023-04-30T04:03:36;102317.53;;;6.89;100.00
42111;BME280;27766;52.174;5.456;2023-04-30T04:06:04;102307.31;;;6.91;100.00
42111;BME280;27766;52.174;5.456;2023-04-30T04:08:31;102313.97;;;6.87;100.00
42111;BME280;27766;52.174;5.456;2023-04-30T04:10:59;102311.84;;;6.80;100.00
42111;BME280;27766;52.174;5.456;2023-04-30T04:13:28;102309.47;;;6.68;100.00
42111;BME280;27766;52.174;5.456;2023-04-30T04:15:55;102304.88;;;6.62;100.00
42111;BME280;27766;52.174;5.456;2023-04-30T04:18:22;102300.78;;;6.51;100.00
42111;BME280;27766;52.174;5.456;2023-04-30T04:20:50;102302.72;;;6.55;100.00
42111;BME280;27766;52.174;5.456;2023-04-30T04:23:17;102309.56;;;6.55;100.00
42111;BME280;27766;52.174;5.456;2023-04-30T04:25:44;102310.44;;;6.55;100.00
42111;BME280;27766;52.174;5.456;2023-04-30T04:28:15;102296.78;;;6.56;100.00
42111;BME280;27766;52.174;5.456;2023-04-30T04:30:43;102308.31;;;6.63;100.00
42111;BME280;27766;52.174;5.456;2023-04-30T04:33:10;102308.41;;;6.64;100.00
42111;BME280;27766;52.174;5.456;2023-04-30T04:35:37;102307.69;;;6.67;100.00
42111;BME280;27766;52.174;5.456;2023-04-30T04:38:04;102312.31;;;6.73;100.00
42111;BME280;27766;52.174;5.456;2023-04-30T04:40:32;102313.63;;;6.81;100.00
42111;BME280;27766;52.174;5.456;2023-04-30T04:42:59;102309.47;;;6.83;100.00
42111;BME280;27766;52.174;5.456;2023-04-30T04:45:26;102321.16;;;6.93;100.00
42111;BME280;27766;52.174;5.456;2023-04-30T04:47:53;102315.22;;;6.94;100.00
42111;BME280;27766;52.174;5.456;2023-04-30T04:50:21;102322.28;;;6.98;100.00
42111;BME280;27766;52.174;5.456;2023-04-30T04:52:48;102308.22;;;6.91;100.00
42111;BME280;27766;52.174;5.456;2023-04-30T04:55:15;102315.13;;;6.92;100.00
42111;BME280;27766;52.174;5.456;2023-04-30T04:57:43;102321.16;;;6.93;100.00
42111;BME280;27766;52.174;5.456;2023-04-30T05:00:11;102312.63;;;6.94;100.00
42111;BME280;27766;52.174;5.456;2023-04-30T05:02:38;102311.19;;;6.99;100.00
42111;BME280;27766;52.174;5.456;2023-04-30T05:05:06;102310.47;;;7.02;100.00
42111;BME280;27766;52.174;5.456;2023-04-30T05:07:33;102301.97;;;7.03;100.00
42111;BME280;27766;52.174;5.456;2023-04-30T05:10:01;102289.88;;;7.02;100.00
42111;BME280;27766;52.174;5.456;2023-04-30T05:12:28;102309.22;;;7.10;100.00
42111;BME280;27766;52.174;5.456;2023-04-30T05:14:55;102310.28;;;7.13;100.00
42111;BME280;27766;52.174;5.456;2023-04-30T05:17:22;102314.16;;;7.22;100.00
42111;BME280;27766;52.174;5.456;2023-04-30T05:19:51;102328.28;;;7.28;100.00
42111;BME280;27766;52.174;5.456;2023-04-30T05:22:19;102325.16;;;7.34;100.00
42111;BME280;27766;52.174;5.456;2023-04-30T05:24:47;102326.13;;;7.36;100.00
42111;BME280;27766;52.174;5.456;2023-04-30T05:27:15;102329.47;;;7.50;100.00
42111;BME280;27766;52.174;5.456;2023-04-30T05:29:42;102334.88;;;7.55;100.00
42111;BME280;27766;52.174;5.456;2023-04-30T05:32:09;102330.75;;;7.58;100.00
42111;BME280;27766;52.174;5.456;2023-04-30T05:34:36;102333.66;;;7.65;100.00
42111;BME280;27766;52.174;5.456;2023-04-30T05:37:03;102326.38;;;7.72;100.00
42111;BME280;27766;52.174;5.456;2023-04-30T05:39:30;102334.16;;;7.74;100.00
42111;BME280;27766;52.174;5.456;2023-04-30T05:41:58;102342.28;;;7.82;100.00
42111;BME280;27766;52.174;5.456;2023-04-30T05:44:25;102345.28;;;7.89;100.00
42111;BME280;27766;52.174;5.456;2023-04-30T05:46:52;102338.59;;;7.93;100.00
42111;BME280;27766;52.174;5.456;2023-04-30T05:49:19;102343.22;;;7.99;100.00
42111;BME280;27766;52.174;5.456;2023-04-30T05:51:47;102344.31;;;8.04;100.00
42111;BME280;27766;52.174;5.456;2023-04-30T05:54:14;102359.31;;;8.11;100.00
42111;BME280;27766;52.174;5.456;2023-04-30T05:56:42;102357.97;;;8.18;100.00
42111;BME280;27766;52.174;5.456;2023-04-30T05:59:09;102356.81;;;8.29;100.00
42111;BME280;27766;52.174;5.456;2023-04-30T06:01:36;102356.31;;;8.36;100.00
42111;BME280;27766;52.174;5.456;2023-04-30T06:04:03;102348.34;;;8.48;100.00
42111;BME280;27766;52.174;5.456;2023-04-30T06:06:31;102355.75;;;8.59;100.00
42111;BME280;27766;52.174;5.456;2023-04-30T06:08:58;102354.69;;;8.71;100.00
42111;BME280;27766;52.174;5.456;2023-04-30T06:11:25;102362.06;;;8.82;100.00
42111;BME280;27766;52.174;5.456;2023-04-30T06:13:53;102350.56;;;8.93;100.00
42111;BME280;27766;52.174;5.456;2023-04-30T06:16:20;102363.66;;;9.14;100.00
42111;BME280;27766;52.174;5.456;2023-04-30T06:18:48;102361.28;;;9.19;100.00
42111;BME280;27766;52.174;5.456;2023-04-30T06:21:18;102368.88;;;9.34;100.00
42111;BME280;27766;52.174;5.456;2023-04-30T06:23:46;102359.44;;;9.34;100.00
42111;BME280;27766;52.174;5.456;2023-04-30T06:26:13;102374.63;;;9.28;100.00
42111;BME280;27766;52.174;5.456;2023-04-30T06:28:41;102380.53;;;9.44;100.00
42111;BME280;27766;52.174;5.456;2023-04-30T06:31:09;102377.06;;;9.43;100.00
42111;BME280;27766;52.174;5.456;2023-04-30T06:33:36;102377.84;;;9.60;100.00
42111;BME280;27766;52.174;5.456;2023-04-30T06:36:04;102365.13;;;9.65;100.00
42111;BME280;27766;52.174;5.456;2023-04-30T06:38:31;102379.78;;;9.84;100.00
42111;BME280;27766;52.174;5.456;2023-04-30T06:40:58;102375.06;;;9.93;100.00
42111;BME280;27766;52.174;5.456;2023-04-30T06:43:28;102374.03;;;10.09;100.00
42111;BME280;27766;52.174;5.456;2023-04-30T06:45:55;102364.28;;;10.23;100.00
42111;BME280;27766;52.174;5.456;2023-04-30T06:48:22;102365.03;;;10.40;100.00
42111;BME280;27766;52.174;5.456;2023-04-30T06:50:51;102365.78;;;10.57;100.00
42111;BME280;27766;52.174;5.456;2023-04-30T06:53:20;102356.75;;;10.69;100.00
42111;BME280;27766;52.174;5.456;2023-04-30T06:55:47;102363.53;;;10.86;100.00
42111;BME280;27766;52.174;5.456;2023-04-30T06:58:15;102362.06;;;10.93;100.00
42111;BME280;27766;52.174;5.456;2023-04-30T07:00:42;102362.56;;;11.05;100.00
42111;BME280;27766;52.174;5.456;2023-04-30T07:03:09;102367.41;;;11.19;100.00
42111;BME280;27766;52.174;5.456;2023-04-30T07:05:36;102373.06;;;11.31;100.00
42111;BME280;27766;52.174;5.456;2023-04-30T07:08:05;102377.09;;;11.46;100.00
42111;BME280;27766;52.174;5.456;2023-04-30T07:10:32;102369.63;;;11.53;100.00
42111;BME280;27766;52.174;5.456;2023-04-30T07:13:00;102375.84;;;11.59;100.00
42111;BME280;27766;52.174;5.456;2023-04-30T07:15:27;102368.66;;;11.74;100.00
42111;BME280;27766;52.174;5.456;2023-04-30T07:17:54;102371.94;;;11.68;100.00
42111;BME280;27766;52.174;5.456;2023-04-30T07:20:22;102380.97;;;11.80;100.00
42111;BME280;27766;52.174;5.456;2023-04-30T07:22:50;102383.31;;;11.96;100.00
42111;BME280;27766;52.174;5.456;2023-04-30T07:25:17;102377.63;;;12.05;100.00
42111;BME280;27766;52.174;5.456;2023-04-30T07:27:44;102382.72;;;12.02;100.00
42111;BME280;27766;52.174;5.456;2023-04-30T07:30:12;102380.72;;;11.96;100.00
42111;BME280;27766;52.174;5.456;2023-04-30T07:32:39;102385.19;;;12.23;100.00
42111;BME280;27766;52.174;5.456;2023-04-30T07:35:07;102381.25;;;12.34;100.00
42111;BME280;27766;52.174;5.456;2023-04-30T07:37:35;102384.47;;;12.53;100.00
42111;BME280;27766;52.174;5.456;2023-04-30T07:40:04;102379.69;;;12.64;100.00
42111;BME280;27766;52.174;5.456;2023-04-30T07:42:31;102383.47;;;12.74;100.00
42111;BME280;27766;52.174;5.456;2023-04-30T07:44:58;102377.34;;;12.72;100.00
42111;BME280;27766;52.174;5.456;2023-04-30T07:47:26;102374.00;;;12.76;100.00
42111;BME280;27766;52.174;5.456;2023-04-30T07:49:54;102372.25;;;12.75;100.00
42111;BME280;27766;52.174;5.456;2023-04-30T07:52:22;102372.44;;;12.81;100.00
42111;BME280;27766;52.174;5.456;2023-04-30T07:54:51;102373.31;;;12.81;100.00
42111;BME280;27766;52.174;5.456;2023-04-30T07:57:18;102373.47;;;12.86;100.00
42111;BME280;27766;52.174;5.456;2023-04-30T07:59:46;102362.84;;;12.78;100.00
42111;BME280;27766;52.174;5.456;2023-04-30T08:02:17;102369.19;;;12.87;100.00
42111;BME280;27766;52.174;5.456;2023-04-30T08:04:44;102368.41;;;12.89;100.00
42111;BME280;27766;52.174;5.456;2023-04-30T08:07:12;102365.00;;;12.92;100.00
42111;BME280;27766;52.174;5.456;2023-04-30T08:09:41;102364.53;;;13.04;100.00
42111;BME280;27766;52.174;5.456;2023-04-30T08:12:08;102371.72;;;13.12;100.00
42111;BME280;27766;52.174;5.456;2023-04-30T08:14:36;102378.19;;;13.25;100.00
42111;BME280;27766;52.174;5.456;2023-04-30T08:17:03;102372.81;;;13.47;100.00
42111;BME280;27766;52.174;5.456;2023-04-30T08:19:30;102369.44;;;13.49;100.00
42111;BME280;27766;52.174;5.456;2023-04-30T08:21:58;102368.75;;;13.55;100.00
42111;BME280;27766;52.174;5.456;2023-04-30T08:24:26;102374.84;;;13.57;100.00
42111;BME280;27766;52.174;5.456;2023-04-30T08:26:53;102371.34;;;13.55;100.00
42111;BME280;27766;52.174;5.456;2023-04-30T08:29:21;102374.53;;;13.46;100.00
42111;BME280;27766;52.174;5.456;2023-04-30T08:31:48;102367.94;;;13.57;100.00
42111;BME280;27766;52.174;5.456;2023-04-30T08:34:16;102377.44;;;13.57;100.00
42111;BME280;27766;52.174;5.456;2023-04-30T08:36:43;102373.50;;;13.70;100.00
42111;BME280;27766;52.174;5.456;2023-04-30T08:39:10;102369.69;;;13.87;100.00
42111;BME280;27766;52.174;5.456;2023-04-30T08:41:40;102373.88;;;13.82;100.00
42111;BME280;27766;52.174;5.456;2023-04-30T08:44:12;102375.09;;;13.95;100.00
42111;BME280;27766;52.174;5.456;2023-04-30T08:46:40;102367.50;;;14.03;100.00
42111;BME280;27766;52.174;5.456;2023-04-30T08:49:08;102370.31;;;14.11;100.00
42111;BME280;27766;52.174;5.456;2023-04-30T08:51:36;102371.25;;;14.13;100.00
42111;BME280;27766;52.174;5.456;2023-04-30T08:54:03;102362.88;;;14.24;100.00
42111;BME280;27766;52.174;5.456;2023-04-30T08:56:30;102365.59;;;14.28;99.21
42111;BME280;27766;52.174;5.456;2023-04-30T08:58:59;102370.97;;;14.35;93.85
42111;BME280;27766;52.174;5.456;2023-04-30T09:01:28;102368.50;;;14.40;99.97
42111;BME280;27766;52.174;5.456;2023-04-30T09:03:56;102364.50;;;14.53;100.00
42111;BME280;27766;52.174;5.456;2023-04-30T09:06:24;102364.69;;;14.61;95.29
42111;BME280;27766;52.174;5.456;2023-04-30T09:08:53;102352.75;;;14.67;91.99
42111;BME280;27766;52.174;5.456;2023-04-30T09:11:30;102357.78;;;14.61;93.84
42111;BME280;27766;52.174;5.456;2023-04-30T09:14:00;102355.31;;;14.66;93.95
42111;BME280;27766;52.174;5.456;2023-04-30T09:16:30;102357.28;;;14.76;96.74
42111;BME280;27766;52.174;5.456;2023-04-30T09:19:24;102361.13;;;14.91;95.94
42111;BME280;27766;52.174;5.456;2023-04-30T09:21:52;102354.44;;;15.02;88.90
42111;BME280;27766;52.174;5.456;2023-04-30T09:24:19;102362.53;;;15.14;89.00
42111;BME280;27766;52.174;5.456;2023-04-30T09:26:47;102355.63;;;15.15;87.05
42111;BME280;27766;52.174;5.456;2023-04-30T09:29:15;102354.00;;;15.22;84.46
42111;BME280;27766;52.174;5.456;2023-04-30T09:31:45;102347.81;;;15.16;89.46
42111;BME280;27766;52.174;5.456;2023-04-30T09:34:13;102350.69;;;15.27;90.57
42111;BME280;27766;52.174;5.456;2023-04-30T09:36:54;102348.25;;;14.97;93.72
42111;BME280;27766;52.174;5.456;2023-04-30T09:39:21;102346.84;;;15.11;98.22
42111;BME280;27766;52.174;5.456;2023-04-30T09:41:51;102351.28;;;15.15;90.22
42111;BME280;27766;52.174;5.456;2023-04-30T09:44:30;102345.91;;;15.09;91.62
42111;BME280;27766;52.174;5.456;2023-04-30T09:46:57;102343.88;;;15.34;90.68
42111;BME280;27766;52.174;5.456;2023-04-30T09:49:26;102344.47;;;15.21;88.02
42111;BME280;27766;52.174;5.456;2023-04-30T09:51:58;102344.94;;;15.42;95.45
42111;BME280;27766;52.174;5.456;2023-04-30T09:54:30;102345.25;;;15.58;91.00
42111;BME280;27766;52.174;5.456;2023-04-30T09:57:00;102334.00;;;15.60;87.62
42111;BME280;27766;52.174;5.456;2023-04-30T09:59:33;102336.84;;;15.71;87.92
42111;BME280;27766;52.174;5.456;2023-04-30T10:02:06;102337.06;;;15.82;84.38
42111;BME280;27766;52.174;5.456;2023-04-30T10:04:36;102325.78;;;15.83;92.14
42111;BME280;27766;52.174;5.456;2023-04-30T10:07:24;102329.47;;;15.93;85.92
42111;BME280;27766;52.174;5.456;2023-04-30T10:09:56;102319.00;;;15.91;87.98
42111;BME280;27766;52.174;5.456;2023-04-30T10:12:28;102315.56;;;15.94;86.27
42111;BME280;27766;52.174;5.456;2023-04-30T10:15:09;102311.25;;;15.96;86.96
42111;BME280;27766;52.174;5.456;2023-04-30T10:17:37;102318.47;;;16.11;86.23
42111;BME280;27766;52.174;5.456;2023-04-30T10:20:11;102318.56;;;16.16;85.84
42111;BME280;27766;52.174;5.456;2023-04-30T10:22:39;102305.03;;;15.89;80.80
42111;BME280;27766;52.174;5.456;2023-04-30T10:25:08;102315.75;;;16.05;81.79
42111;BME280;27766;52.174;5.456;2023-04-30T10:27:39;102308.97;;;16.14;78.67
42111;BME280;27766;52.174;5.456;2023-04-30T10:30:09;102308.09;;;16.12;76.98
42111;BME280;27766;52.174;5.456;2023-04-30T10:32:43;102299.09;;;15.98;83.47
42111;BME280;27766;52.174;5.456;2023-04-30T10:35:23;102309.72;;;16.07;84.32
42111;BME280;27766;52.174;5.456;2023-04-30T10:37:56;102298.59;;;16.18;78.55
42111;BME280;27766;52.174;5.456;2023-04-30T10:40:26;102302.13;;;16.21;75.02
42111;BME280;27766;52.174;5.456;2023-04-30T10:42:54;102292.63;;;16.26;78.87
42111;BME280;27766;52.174;5.456;2023-04-30T10:45:34;102300.56;;;16.33;80.22
42111;BME280;27766;52.174;5.456;2023-04-30T10:48:05;102301.66;;;16.44;83.08
42111;BME280;27766;52.174;5.456;2023-04-30T10:50:42;102296.25;;;16.33;80.78
42111;BME280;27766;52.174;5.456;2023-04-30T10:53:13;102294.66;;;16.43;86.15
42111;BME280;27766;52.174;5.456;2023-04-30T10:55:47;102294.00;;;16.56;83.43
42111;BME280;27766;52.174;5.456;2023-04-30T10:58:32;102285.28;;;16.56;80.13
42111;BME280;27766;52.174;5.456;2023-04-30T11:03:40;102278.31;;;16.55;69.27
42111;BME280;27766;52.174;5.456;2023-04-30T11:06:13;102276.25;;;16.35;70.06
42111;BME280;27766;52.174;5.456;2023-04-30T11:08:45;102272.72;;;16.32;75.43
42111;BME280;27766;52.174;5.456;2023-04-30T11:11:18;102265.09;;;16.45;77.97
42111;BME280;27766;52.174;5.456;2023-04-30T11:14:00;102263.47;;;16.54;77.90
42111;BME280;27766;52.174;5.456;2023-04-30T11:16:33;102264.47;;;16.62;74.35
42111;BME280;27766;52.174;5.456;2023-04-30T11:19:12;102260.19;;;16.67;71.82
42111;BME280;27766;52.174;5.456;2023-04-30T11:21:41;102272.47;;;16.70;69.11
42111;BME280;27766;52.174;5.456;2023-04-30T11:24:08;102263.72;;;16.69;68.41
42111;BME280;27766;52.174;5.456;2023-04-30T11:27:01;102253.56;;;16.91;67.72
42111;BME280;27766;52.174;5.456;2023-04-30T11:29:29;102254.59;;;16.99;64.14
42111;BME280;27766;52.174;5.456;2023-04-30T11:32:00;102245.88;;;16.97;67.03
42111;BME280;27766;52.174;5.456;2023-04-30T11:34:30;102232.09;;;17.11;66.85
42111;BME280;27766;52.174;5.456;2023-04-30T11:36:58;102231.31;;;17.19;65.11
42111;BME280;27766;52.174;5.456;2023-04-30T11:39:27;102221.81;;;17.28;62.81
42111;BME280;27766;52.174;5.456;2023-04-30T11:41:55;102227.28;;;17.46;66.18
42111;BME280;27766;52.174;5.456;2023-04-30T11:44:25;102224.84;;;17.65;64.57
42111;BME280;27766;52.174;5.456;2023-04-30T11:46:52;102224.19;;;17.84;58.16
42111;BME280;27766;52.174;5.456;2023-04-30T11:49:19;102224.38;;;18.01;57.24
42111;BME280;27766;52.174;5.456;2023-04-30T11:51:48;102218.28;;;18.06;56.70
42111;BME280;27766;52.174;5.456;2023-04-30T11:54:16;102216.66;;;18.17;58.50
42111;BME280;27766;52.174;5.456;2023-04-30T11:56:45;102221.25;;;18.44;56.90
42111;BME280;27766;52.174;5.456;2023-04-30T11:59:16;102207.28;;;18.47;54.01
42111;BME280;27766;52.174;5.456;2023-04-30T12:01:43;102209.00;;;18.42;53.73
42111;BME280;27766;52.174;5.456;2023-04-30T12:04:12;102210.81;;;18.55;53.23
42111;BME280;27766;52.174;5.456;2023-04-30T12:06:40;102209.81;;;18.38;53.51
42111;BME280;27766;52.174;5.456;2023-04-30T12:09:07;102202.69;;;18.18;56.16
42111;BME280;27766;52.174;5.456;2023-04-30T12:11:37;102194.06;;;18.31;53.30
42111;BME280;27766;52.174;5.456;2023-04-30T12:14:06;102198.53;;;18.51;54.02
42111;BME280;27766;52.174;5.456;2023-04-30T12:16:40;102203.94;;;18.73;51.23
42111;BME280;27766;52.174;5.456;2023-04-30T12:19:08;102202.19;;;18.75;50.63
42111;BME280;27766;52.174;5.456;2023-04-30T12:21:36;102194.41;;;18.90;50.86
42111;BME280;27766;52.174;5.456;2023-04-30T12:24:03;102190.16;;;19.11;50.53
42111;BME280;27766;52.174;5.456;2023-04-30T12:26:38;102190.19;;;19.17;49.15
42111;BME280;27766;52.174;5.456;2023-04-30T12:29:14;102189.38;;;19.40;48.32
42111;BME280;27766;52.174;5.456;2023-04-30T12:31:42;102180.59;;;19.30;48.45
42111;BME280;27766;52.174;5.456;2023-04-30T12:34:12;102178.03;;;19.52;47.47
42111;BME280;27766;52.174;5.456;2023-04-30T12:36:40;102183.31;;;19.80;48.39
42111;BME280;27766;52.174;5.456;2023-04-30T12:39:12;102178.09;;;19.89;47.16
42111;BME280;27766;52.174;5.456;2023-04-30T12:41:47;102170.19;;;19.97;46.27
42111;BME280;27766;52.174;5.456;2023-04-30T12:44:25;102169.34;;;19.88;47.28
42111;BME280;27766;52.174;5.456;2023-04-30T12:46:55;102169.34;;;20.05;46.82
42111;BME280;27766;52.174;5.456;2023-04-30T12:52:03;102157.94;;;20.28;45.40
42111;BME280;27766;52.174;5.456;2023-04-30T12:54:34;102160.50;;;20.47;43.01
42111;BME280;27766;52.174;5.456;2023-04-30T12:57:10;102150.78;;;20.87;43.41
42111;BME280;27766;52.174;5.456;2023-04-30T13:02:10;102151.66;;;20.85;41.54
42111;BME280;27766;52.174;5.456;2023-04-30T13:04:40;102150.88;;;20.56;43.31
42111;BME280;27766;52.174;5.456;2023-04-30T13:07:07;102141.13;;;20.88;43.69
42111;BME280;27766;52.174;5.456;2023-04-30T13:09:35;102142.03;;;20.70;43.66
42111;BME280;27766;52.174;5.456;2023-04-30T13:12:03;102138.66;;;20.29;44.22
42111;BME280;27766;52.174;5.456;2023-04-30T13:14:31;102141.28;;;19.67;45.25
42111;BME280;27766;52.174;5.456;2023-04-30T13:16:58;102135.16;;;19.74;45.36
42111;BME280;27766;52.174;5.456;2023-04-30T13:19:26;102132.53;;;20.02;45.89
42111;BME280;27766;52.174;5.456;2023-04-30T13:21:53;102128.13;;;20.35;45.13